Time;durP1;ratioP1;P1;durP2;ratioP2;P2;SDS_P1;SDS_P2;PMS_P1;PMS_P2;Temp;Humidity;BMP_temperature;BMP_pressure;BME280_temperature;BME280_humidity;BME280_pressure;Samples;Min_cycle;Max_cycle;Signal;HPM_P1;HPM_P2
2023/09/29 00:01:19;;;;;;;19.00;4.43;;;17.40;99.90;;;;;;5067917;28;20099;-66
2023/09/29 00:03:46;;;;;;;19.10;4.47;;;17.40;99.90;;;;;;5065827;28;20507;-66
2023/09/29 00:06:12;;;;;;;19.23;4.90;;;17.40;99.90;;;;;;5065086;28;20105;-65
2023/09/29 00:08:38;;;;;;;19.15;3.92;;;17.40;99.90;;;;;;5055205;28;20107;-66
2023/09/29 00:11:04;;;;;;;20.80;4.57;;;17.50;99.90;;;;;;5066942;28;20058;-66
2023/09/29 00:13:29;;;;;;;19.60;4.50;;;17.50;99.90;;;;;;5054316;28;20040;-65
2023/09/29 00:15:55;;;;;;;17.83;4.47;;;17.50;99.90;;;;;;5053914;28;20079;-67
2023/09/29 00:18:23;;;;;;;18.15;4.20;;;17.40;99.90;;;;;;5054199;28;20032;-65
2023/09/29 00:20:48;;;;;;;19.92;3.78;;;17.50;99.90;;;;;;5068751;28;20024;-66
2023/09/29 00:23:15;;;;;;;19.65;4.47;;;17.50;99.90;;;;;;5073834;28;20103;-66
2023/09/29 00:25:40;;;;;;;17.20;4.13;;;17.50;99.90;;;;;;5073894;28;20481;-67
2023/09/29 00:28:06;;;;;;;20.17;4.30;;;17.50;99.90;;;;;;5058895;28;20108;-67
2023/09/29 00:30:31;;;;;;;18.05;4.30;;;17.50;99.90;;;;;;5065871;28;20063;-67
2023/09/29 00:32:57;;;;;;;19.90;4.85;;;17.50;99.90;;;;;;5053705;28;20358;-67
2023/09/29 00:37:49;;;;;;;23.05;4.40;;;17.40;99.90;;;;;;5053816;28;20029;-67
2023/09/29 00:40:15;;;;;;;21.02;4.70;;;17.40;99.90;;;;;;5071583;28;20397;-66
2023/09/29 00:42:44;;;;;;;18.40;4.43;;;17.40;99.90;;;;;;5056740;28;20511;-67
2023/09/29 00:45:11;;;;;;;19.90;4.25;;;17.40;99.90;;;;;;5053052;28;20069;-67
2023/09/29 00:47:37;;;;;;;22.52;4.75;;;17.40;99.90;;;;;;5054061;28;20033;-67
2023/09/29 00:50:09;;;;;;;18.80;4.43;;;17.40;99.90;;;;;;5063834;28;20076;-67
2023/09/29 00:52:38;;;;;;;20.63;4.60;;;17.50;99.90;;;;;;5057237;28;20052;-67
2023/09/29 00:55:10;;;;;;;17.70;4.05;;;17.50;99.90;;;;;;5073224;28;20028;-66
2023/09/29 00:57:39;;;;;;;17.65;4.78;;;17.50;99.90;;;;;;5073140;28;20036;-66
2023/09/29 01:00:14;;;;;;;20.98;5.10;;;17.50;99.90;;;;;;5072848;28;20024;-66
2023/09/29 01:02:43;;;;;;;17.02;4.15;;;17.50;99.90;;;;;;5079344;28;20480;-67
2023/09/29 01:05:11;;;;;;;20.67;4.80;;;17.50;99.90;;;;;;5075161;28;20029;-65
2023/09/29 01:07:37;;;;;;;19.08;5.15;;;17.50;99.90;;;;;;5052809;28;20033;-65
2023/09/29 01:10:03;;;;;;;17.77;4.18;;;17.50;99.90;;;;;;5052587;28;20021;-65
2023/09/29 01:12:29;;;;;;;23.80;5.00;;;17.50;99.90;;;;;;5081100;28;20050;-65
2023/09/29 01:14:54;;;;;;;19.27;5.20;;;17.40;99.90;;;;;;5093188;28;20467;-66
2023/09/29 01:17:20;;;;;;;17.58;4.40;;;17.40;99.90;;;;;;5079461;28;20036;-67
2023/09/29 01:19:48;;;;;;;16.08;4.53;;;17.40;99.90;;;;;;5081017;28;20024;-66
2023/09/29 01:22:14;;;;;;;19.77;4.88;;;17.40;99.90;;;;;;5092967;28;20490;-66
2023/09/29 01:24:39;;;;;;;16.35;4.47;;;17.40;99.90;;;;;;5059551;28;20060;-66
2023/09/29 01:27:05;;;;;;;17.52;4.60;;;17.30;99.90;;;;;;5069252;28;20032;-66
2023/09/29 01:29:31;;;;;;;17.65;4.72;;;17.30;99.90;;;;;;5066440;28;20025;-66
2023/09/29 01:31:57;;;;;;;18.15;5.10;;;17.30;99.90;;;;;;5052627;28;20037;-66
2023/09/29 01:34:24;;;;;;;19.88;4.95;;;17.30;99.90;;;;;;5070596;28;20476;-66
2023/09/29 01:36:50;;;;;;;19.52;4.72;;;17.30;99.90;;;;;;5070991;28;20164;-66
2023/09/29 01:39:16;;;;;;;21.20;5.07;;;17.30;99.90;;;;;;5055503;28;20115;-66
2023/09/29 01:41:43;;;;;;;20.77;5.40;;;17.30;99.90;;;;;;5073147;28;20069;-66
2023/09/29 01:44:09;;;;;;;23.25;4.97;;;17.40;99.90;;;;;;5072589;28;20029;-66
2023/09/29 01:46:35;;;;;;;19.15;4.90;;;17.40;99.90;;;;;;5085816;28;20035;-66
2023/09/29 01:49:01;;;;;;;17.63;5.18;;;17.40;99.90;;;;;;5074358;28;20020;-66
2023/09/29 01:51:29;;;;;;;23.33;5.00;;;17.50;99.90;;;;;;5087249;28;20051;-66
2023/09/29 01:53:55;;;;;;;18.83;5.38;;;17.50;99.90;;;;;;5075477;28;20130;-66
2023/09/29 01:56:21;;;;;;;18.40;5.07;;;17.50;99.90;;;;;;5086028;28;20141;-66
2023/09/29 01:58:48;;;;;;;19.25;4.85;;;17.50;99.90;;;;;;5081225;28;20027;-66
2023/09/29 02:01:14;;;;;;;19.17;4.57;;;17.50;99.90;;;;;;5080279;28;20362;-66
2023/09/29 02:03:41;;;;;;;21.55;4.97;;;17.50;99.90;;;;;;5078174;28;20035;-66
2023/09/29 02:06:07;;;;;;;19.10;4.28;;;17.50;99.90;;;;;;5081268;28;20089;-66
2023/09/29 02:08:33;;;;;;;17.92;4.38;;;17.50;99.90;;;;;;5084501;28;20403;-65
2023/09/29 02:11:00;;;;;;;20.23;5.00;;;17.50;99.90;;;;;;5083138;28;20024;-65
2023/09/29 02:13:26;;;;;;;18.30;4.30;;;17.50;99.90;;;;;;5076681;28;20065;-65
2023/09/29 02:15:51;;;;;;;25.15;5.15;;;17.50;99.90;;;;;;5089238;28;20486;-65
2023/09/29 02:18:17;;;;;;;19.20;4.72;;;17.40;99.90;;;;;;5086739;28;20052;-65
2023/09/29 02:20:46;;;;;;;18.35;4.93;;;17.30;99.90;;;;;;5081068;28;20062;-65
2023/09/29 02:23:13;;;;;;;16.75;5.00;;;17.10;99.90;;;;;;5087070;28;20039;-65
2023/09/29 02:25:41;;;;;;;17.70;4.88;;;17.00;99.90;;;;;;5073307;28;20065;-64
2023/09/29 02:28:09;;;;;;;29.25;6.55;;;16.90;99.90;;;;;;5071657;28;20052;-64
2023/09/29 02:30:35;;;;;;;22.95;6.20;;;16.90;99.90;;;;;;5061424;28;20052;-65
2023/09/29 02:33:01;;;;;;;20.67;5.43;;;16.70;99.90;;;;;;5068421;28;20259;-66
2023/09/29 02:35:28;;;;;;;23.20;6.15;;;16.60;99.90;;;;;;5065870;28;20044;-66
2023/09/29 02:37:54;;;;;;;25.50;5.88;;;16.50;99.90;;;;;;5069597;28;20094;-65
2023/09/29 02:40:22;;;;;;;21.92;6.85;;;16.40;99.90;;;;;;5071190;28;20028;-66
2023/09/29 02:42:47;;;;;;;25.42;6.55;;;16.40;99.90;;;;;;5070310;28;20838;-66
2023/09/29 02:45:14;;;;;;;22.65;6.80;;;16.40;99.90;;;;;;5068227;28;20058;-65
2023/09/29 02:47:39;;;;;;;27.50;8.00;;;16.30;99.90;;;;;;5071361;28;20054;-65
2023/09/29 02:50:09;;;;;;;19.70;6.40;;;16.30;99.90;;;;;;5063969;28;20128;-66
2023/09/29 02:52:36;;;;;;;26.63;6.70;;;16.30;99.90;;;;;;5067818;28;20181;-65
2023/09/29 02:55:04;;;;;;;21.90;6.85;;;16.20;99.90;;;;;;5067060;28;20100;-65
2023/09/29 02:57:30;;;;;;;22.73;6.38;;;16.20;99.90;;;;;;5070089;28;20527;-65
2023/09/29 02:59:57;;;;;;;26.25;6.75;;;16.20;99.90;;;;;;5071207;28;20029;-66
2023/09/29 03:02:23;;;;;;;23.75;6.68;;;16.20;99.90;;;;;;5070821;28;20511;-65
2023/09/29 03:04:49;;;;;;;24.23;8.63;;;16.20;99.90;;;;;;5070957;28;20063;-66
2023/09/29 03:07:15;;;;;;;26.27;13.10;;;16.20;99.90;;;;;;5065120;28;20115;-66
2023/09/29 03:09:41;;;;;;;32.78;19.90;;;16.30;99.90;;;;;;5073879;28;20107;-65
2023/09/29 03:12:07;;;;;;;39.13;21.45;;;16.30;99.90;;;;;;5074874;28;20457;-66
2023/09/29 03:14:32;;;;;;;35.67;23.20;;;16.30;99.90;;;;;;5072805;28;20021;-66
2023/09/29 03:17:00;;;;;;;42.30;21.55;;;16.40;99.90;;;;;;5063828;28;20143;-66
2023/09/29 03:19:31;;;;;;;35.88;15.10;;;16.40;99.90;;;;;;5066930;28;20103;-66
2023/09/29 03:21:58;;;;;;;26.17;13.30;;;16.40;99.90;;;;;;5074492;28;20036;-66
2023/09/29 03:24:27;;;;;;;25.95;10.40;;;16.40;99.90;;;;;;5070973;28;20036;-66
2023/09/29 03:26:53;;;;;;;22.65;7.32;;;16.50;99.90;;;;;;5069143;28;20024;-66
2023/09/29 03:29:19;;;;;;;27.27;7.35;;;16.50;99.90;;;;;;5070156;28;20027;-66
2023/09/29 03:31:46;;;;;;;20.95;6.45;;;16.50;99.90;;;;;;5072435;28;20108;-66
2023/09/29 03:34:14;;;;;;;24.10;6.63;;;16.50;99.90;;;;;;5073988;28;20043;-65
2023/09/29 03:36:39;;;;;;;20.92;6.18;;;16.50;99.90;;;;;;5068822;28;20021;-65
2023/09/29 03:39:06;;;;;;;18.67;6.03;;;16.60;99.90;;;;;;5073933;28;20028;-66
2023/09/29 03:41:33;;;;;;;24.25;6.90;;;16.60;99.90;;;;;;5070761;28;20029;-65
2023/09/29 03:43:59;;;;;;;19.65;5.20;;;16.60;99.90;;;;;;5069149;28;20028;-66
2023/09/29 03:46:24;;;;;;;22.67;6.13;;;16.60;99.90;;;;;;5068902;28;20392;-65
2023/09/29 03:48:50;;;;;;;20.23;5.68;;;16.70;99.90;;;;;;5070191;28;20036;-66
2023/09/29 03:51:23;;;;;;;19.33;5.78;;;16.70;99.90;;;;;;5067910;28;20107;-65
2023/09/29 03:53:50;;;;;;;18.05;4.82;;;16.70;99.90;;;;;;5074068;28;20040;-65
2023/09/29 03:56:16;;;;;;;18.67;4.78;;;16.70;99.90;;;;;;5072468;28;20020;-65
2023/09/29 03:58:43;;;;;;;18.17;4.78;;;16.70;99.90;;;;;;5072229;28;20035;-65
2023/09/29 04:01:08;;;;;;;19.50;4.88;;;16.70;99.90;;;;;;5073983;28;20060;-66
2023/09/29 04:03:34;;;;;;;17.63;4.53;;;16.70;99.90;;;;;;5070806;28;20055;-65
2023/09/29 04:06:00;;;;;;;18.08;4.82;;;16.80;99.90;;;;;;5067279;28;20451;-65
2023/09/29 04:08:25;;;;;;;18.23;4.35;;;16.80;99.90;;;;;;5070490;28;20029;-67
2023/09/29 04:10:52;;;;;;;17.13;4.43;;;16.90;99.90;;;;;;5075647;28;20810;-67
2023/09/29 04:13:18;;;;;;;22.88;5.45;;;16.90;99.90;;;;;;5075857;28;20123;-66
2023/09/29 04:15:44;;;;;;;17.77;4.78;;;16.90;99.90;;;;;;5075823;28;20112;-66
2023/09/29 04:18:10;;;;;;;19.20;5.28;;;16.90;99.90;;;;;;5076858;28;20028;-66
2023/09/29 04:20:35;;;;;;;16.50;4.95;;;17.00;99.90;;;;;;5078485;28;20028;-66
2023/09/29 04:23:01;;;;;;;14.75;4.35;;;17.00;99.90;;;;;;5081065;28;20477;-66
2023/09/29 04:25:26;;;;;;;18.40;4.45;;;17.00;99.90;;;;;;5077923;28;20035;-66
2023/09/29 04:27:52;;;;;;;22.90;4.88;;;17.00;99.90;;;;;;5071160;28;20032;-66
2023/09/29 04:30:17;;;;;;;16.65;4.55;;;17.10;99.90;;;;;;5083467;28;20495;-66
2023/09/29 04:32:43;;;;;;;20.42;5.63;;;17.10;99.90;;;;;;5087084;28;20480;-66
2023/09/29 04:35:09;;;;;;;16.33;4.25;;;17.10;99.90;;;;;;5090688;28;20479;-66
2023/09/29 04:37:34;;;;;;;19.90;5.25;;;17.10;99.90;;;;;;5080155;28;20086;-66
2023/09/29 04:40:00;;;;;;;17.80;5.00;;;17.10;99.90;;;;;;5084306;28;20037;-66
2023/09/29 04:42:25;;;;;;;22.33;5.20;;;17.20;99.90;;;;;;5077850;28;20024;-67
2023/09/29 04:44:51;;;;;;;13.40;4.68;;;17.20;99.90;;;;;;5068750;28;20571;-66
2023/09/29 04:47:17;;;;;;;20.92;5.35;;;17.20;99.90;;;;;;5089943;28;20424;-66
2023/09/29 04:49:43;;;;;;;18.15;5.50;;;17.20;99.90;;;;;;5080476;28;20068;-66
2023/09/29 04:52:08;;;;;;;14.82;4.90;;;17.20;99.90;;;;;;5082726;28;20025;-66
2023/09/29 04:54:34;;;;;;;15.75;4.60;;;17.20;99.90;;;;;;5087967;28;20024;-66
2023/09/29 04:56:59;;;;;;;14.15;4.57;;;17.20;99.90;;;;;;5076586;28;20104;-66
2023/09/29 04:59:25;;;;;;;15.52;4.40;;;17.30;99.90;;;;;;5080515;28;20464;-66
2023/09/29 05:01:51;;;;;;;16.25;4.60;;;17.30;99.90;;;;;;5063318;28;20029;-66
2023/09/29 05:04:16;;;;;;;14.52;4.75;;;17.30;99.90;;;;;;5075373;28;20043;-66
2023/09/29 05:06:43;;;;;;;15.15;4.78;;;17.30;99.90;;;;;;5088683;28;20032;-66
2023/09/29 05:09:11;;;;;;;16.38;4.53;;;17.30;99.90;;;;;;5081403;28;20043;-66
2023/09/29 05:11:37;;;;;;;18.05;4.60;;;17.30;99.90;;;;;;5086817;28;20033;-67
2023/09/29 05:14:03;;;;;;;13.15;3.78;;;17.30;99.90;;;;;;5082959;28;20117;-65
2023/09/29 05:16:28;;;;;;;14.48;4.28;;;17.30;99.90;;;;;;5075897;28;20571;-65
2023/09/29 05:18:54;;;;;;;14.85;4.57;;;17.30;99.90;;;;;;5066995;28;20029;-65
2023/09/29 05:21:20;;;;;;;15.88;4.80;;;17.30;99.90;;;;;;5088887;28;20025;-67
2023/09/29 05:23:46;;;;;;;15.02;4.65;;;17.40;99.90;;;;;;5086436;28;20032;-66
2023/09/29 05:26:12;;;;;;;19.15;4.80;;;17.40;99.90;;;;;;5079964;28;20039;-65
2023/09/29 05:28:38;;;;;;;15.05;4.50;;;17.40;99.90;;;;;;5075973;28;20385;-65
2023/09/29 05:31:04;;;;;;;15.45;4.55;;;17.40;99.90;;;;;;5074612;28;20027;-65
2023/09/29 05:33:30;;;;;;;17.42;4.35;;;17.40;99.90;;;;;;5069879;28;20040;-66
2023/09/29 05:35:56;;;;;;;14.90;5.15;;;17.40;99.90;;;;;;5075009;28;20028;-65
2023/09/29 05:38:22;;;;;;;16.58;4.45;;;17.40;99.90;;;;;;5090538;28;20071;-67
2023/09/29 05:40:50;;;;;;;16.27;4.70;;;17.30;99.90;;;;;;5086802;28;20456;-67
2023/09/29 05:43:16;;;;;;;15.70;4.80;;;17.30;99.90;;;;;;5069438;28;20031;-67
2023/09/29 05:45:45;;;;;;;15.25;5.00;;;17.30;99.90;;;;;;5085796;28;20025;-67
2023/09/29 05:48:11;;;;;;;14.45;4.35;;;17.30;99.90;;;;;;5083877;28;20031;-67
2023/09/29 05:50:36;;;;;;;13.98;4.50;;;17.30;99.90;;;;;;5092868;28;20048;-68
2023/09/29 05:53:04;;;;;;;15.63;4.72;;;17.30;99.90;;;;;;5075616;28;20058;-65
2023/09/29 05:55:30;;;;;;;13.73;4.18;;;17.30;99.90;;;;;;5074710;28;20047;-66
2023/09/29 05:57:56;;;;;;;16.38;5.15;;;17.30;99.90;;;;;;5076228;28;20384;-67
2023/09/29 06:00:22;;;;;;;17.15;4.45;;;17.30;99.90;;;;;;5070732;28;20021;-67
2023/09/29 06:02:47;;;;;;;16.98;4.63;;;17.30;99.90;;;;;;5072990;28;20040;-67
2023/09/29 06:05:13;;;;;;;16.08;4.93;;;17.30;99.90;;;;;;5088573;28;20111;-66
2023/09/29 06:07:40;;;;;;;11.98;4.25;;;17.30;99.90;;;;;;5078506;28;20472;-66
2023/09/29 06:10:06;;;;;;;14.63;4.20;;;17.40;99.90;;;;;;5076224;28;20032;-67
2023/09/29 06:12:33;;;;;;;13.40;4.50;;;17.40;99.90;;;;;;5085438;28;20036;-67
2023/09/29 06:14:59;;;;;;;18.45;4.75;;;17.40;99.90;;;;;;5086244;28;20024;-66
2023/09/29 06:17:25;;;;;;;20.40;6.43;;;17.40;99.90;;;;;;5076963;28;20361;-65
2023/09/29 06:19:51;;;;;;;14.60;5.43;;;17.50;99.90;;;;;;5092290;28;20028;-66
2023/09/29 06:22:17;;;;;;;18.92;6.50;;;17.60;99.90;;;;;;5080092;28;20163;-66
2023/09/29 06:24:44;;;;;;;16.13;4.57;;;17.60;99.90;;;;;;5087899;28;20036;-66
2023/09/29 06:27:10;;;;;;;13.70;4.93;;;17.70;99.90;;;;;;5070827;28;20182;-66
2023/09/29 06:29:36;;;;;;;16.70;6.53;;;17.80;99.90;;;;;;5081497;28;20513;-66
2023/09/29 06:32:02;;;;;;;12.35;4.20;;;17.90;99.90;;;;;;5085675;28;20036;-66
2023/09/29 06:34:27;;;;;;;20.30;7.28;;;17.90;99.90;;;;;;5078295;28;20032;-65
2023/09/29 06:36:56;;;;;;;16.80;4.82;;;18.00;99.90;;;;;;5088409;28;20028;-66
2023/09/29 06:39:22;;;;;;;13.80;4.22;;;18.10;99.90;;;;;;5076242;28;20438;-66
2023/09/29 06:41:47;;;;;;;16.63;5.18;;;18.10;99.90;;;;;;5078392;28;20029;-65
2023/09/29 06:44:13;;;;;;;16.58;5.32;;;18.10;99.90;;;;;;5075732;28;20031;-65
2023/09/29 06:46:39;;;;;;;10.50;4.13;;;18.20;99.90;;;;;;5075782;28;20027;-67
2023/09/29 06:49:04;;;;;;;12.20;4.03;;;18.20;99.90;;;;;;5077845;28;20388;-67
2023/09/29 06:51:30;;;;;;;11.20;4.68;;;18.20;99.90;;;;;;5089774;28;20057;-67
2023/09/29 06:53:56;;;;;;;11.45;3.92;;;18.30;99.90;;;;;;5085325;28;20131;-66
2023/09/29 06:56:22;;;;;;;14.70;4.20;;;18.30;99.90;;;;;;5095528;28;20110;-66
2023/09/29 06:58:48;;;;;;;16.30;4.18;;;18.40;99.90;;;;;;5079554;28;20037;-66
2023/09/29 07:01:14;;;;;;;9.38;3.95;;;18.40;99.90;;;;;;5079895;28;20031;-66
2023/09/29 07:03:39;;;;;;;15.98;5.07;;;18.50;99.90;;;;;;5087042;28;20074;-66
2023/09/29 07:06:05;;;;;;;12.52;4.97;;;18.60;99.90;;;;;;5083772;28;20075;-66
2023/09/29 07:08:31;;;;;;;10.23;3.70;;;18.70;99.90;;;;;;5080695;28;20032;-67
2023/09/29 07:10:57;;;;;;;13.15;4.65;;;18.70;99.90;;;;;;5084046;28;20487;-66
2023/09/29 07:13:23;;;;;;;13.45;5.43;;;18.80;99.90;;;;;;5088535;28;20040;-65
2023/09/29 07:15:48;;;;;;;12.40;3.90;;;18.90;99.90;;;;;;5079658;28;20036;-65
2023/09/29 07:18:16;;;;;;;14.88;4.78;;;19.00;99.90;;;;;;5086763;28;20148;-65
2023/09/29 07:20:43;;;;;;;18.17;6.15;;;19.00;99.90;;;;;;5093324;28;20107;-65
2023/09/29 07:23:09;;;;;;;15.93;4.55;;;18.90;99.90;;;;;;5092594;28;20160;-65
2023/09/29 07:25:38;;;;;;;10.45;4.10;;;18.70;99.90;;;;;;5081328;28;20028;-65
2023/09/29 07:28:19;;;;;;;13.40;4.90;;;18.50;99.90;;;;;;5085190;28;20372;-66
2023/09/29 07:30:45;;;;;;;11.10;4.57;;;18.30;99.90;;;;;;5084438;28;20024;-65
2023/09/29 07:33:11;;;;;;;14.65;5.72;;;18.20;99.90;;;;;;5085515;28;20055;-65
2023/09/29 07:35:37;;;;;;;16.27;5.57;;;18.10;99.90;;;;;;5088388;28;20078;-66
2023/09/29 07:38:03;;;;;;;16.65;5.43;;;18.00;99.90;;;;;;5093468;28;20387;-65
2023/09/29 07:40:29;;;;;;;15.73;5.07;;;18.00;99.90;;;;;;5081225;28;20024;-65
2023/09/29 07:42:54;;;;;;;15.10;5.45;;;18.00;99.90;;;;;;5091534;28;20040;-66
2023/09/29 07:45:20;;;;;;;14.35;5.72;;;18.00;99.90;;;;;;5078719;28;20036;-66
2023/09/29 07:47:47;;;;;;;12.98;5.30;;;18.00;99.90;;;;;;5087124;28;20020;-66
2023/09/29 07:50:13;;;;;;;12.30;5.05;;;18.10;99.90;;;;;;5086302;28;20059;-65
2023/09/29 07:52:39;;;;;;;17.27;6.45;;;18.10;99.90;;;;;;5079837;28;20150;-66
2023/09/29 07:55:09;;;;;;;15.60;4.88;;;18.20;99.90;;;;;;5078543;28;20037;-66
2023/09/29 07:57:35;;;;;;;14.38;4.80;;;18.30;99.90;;;;;;5088377;28;20100;-65
2023/09/29 08:00:01;;;;;;;15.52;5.03;;;18.30;99.90;;;;;;5080891;28;20115;-66
2023/09/29 08:02:27;;;;;;;13.73;5.07;;;18.40;99.90;;;;;;5082650;28;20086;-66
2023/09/29 08:04:53;;;;;;;13.80;4.68;;;18.50;99.90;;;;;;5091259;28;20032;-66
2023/09/29 08:07:19;;;;;;;13.60;4.85;;;18.50;99.90;;;;;;5086605;28;20385;-66
2023/09/29 08:09:48;;;;;;;17.55;5.32;;;18.60;99.90;;;;;;5072124;28;20040;-66
2023/09/29 08:12:14;;;;;;;13.18;4.60;;;18.60;99.90;;;;;;5075125;28;20103;-66
2023/09/29 08:14:39;;;;;;;15.65;5.50;;;18.60;99.90;;;;;;5075283;28;20143;-66
2023/09/29 08:17:05;;;;;;;10.68;4.35;;;18.60;99.90;;;;;;5077335;28;20058;-66
2023/09/29 08:19:30;;;;;;;12.80;4.97;;;18.70;99.90;;;;;;5088917;28;20028;-66
2023/09/29 08:21:56;;;;;;;11.52;4.57;;;18.70;99.90;;;;;;5083401;28;20031;-66
2023/09/29 08:24:22;;;;;;;18.83;6.38;;;18.80;99.90;;;;;;5081562;28;20430;-66
2023/09/29 08:26:47;;;;;;;14.25;5.00;;;18.80;99.90;;;;;;5089503;28;20031;-66
2023/09/29 08:29:16;;;;;;;11.65;4.88;;;18.90;99.90;;;;;;5084142;28;20380;-66
2023/09/29 08:31:45;;;;;;;11.25;4.65;;;19.00;99.90;;;;;;5087200;28;20031;-66
2023/09/29 08:34:11;;;;;;;13.88;4.90;;;19.10;99.90;;;;;;5087676;28;20059;-66
2023/09/29 08:36:36;;;;;;;13.25;4.97;;;19.10;99.90;;;;;;5079308;28;20028;-66
2023/09/29 08:39:02;;;;;;;15.15;5.00;;;19.30;99.90;;;;;;5090329;28;20055;-66
2023/09/29 08:41:29;;;;;;;13.27;4.97;;;19.50;99.90;;;;;;5078792;28;20024;-66
2023/09/29 08:43:55;;;;;;;8.35;3.67;;;19.90;99.90;;;;;;5082496;28;20043;-67
2023/09/29 08:46:21;;;;;;;11.85;3.80;;;20.60;99.90;;;;;;5086442;28;20161;-67
2023/09/29 08:48:48;;;;;;;11.57;5.13;;;21.40;99.90;;;;;;5093993;28;20024;-67
2023/09/29 08:51:15;;;;;;;12.90;3.78;;;22.10;99.90;;;;;;5094225;28;20122;-67
2023/09/29 08:53:42;;;;;;;10.95;3.85;;;22.30;99.90;;;;;;5094019;28;20048;-67
2023/09/29 08:56:12;;;;;;;7.72;3.25;;;22.50;99.90;;;;;;5082492;28;20492;-66
2023/09/29 08:58:38;;;;;;;14.50;4.47;;;22.50;99.90;;;;;;5073186;28;20028;-66
2023/09/29 09:01:05;;;;;;;11.40;4.22;;;22.30;99.90;;;;;;5072980;28;20024;-67
2023/09/29 09:03:31;;;;;;;8.20;3.70;;;22.20;99.90;;;;;;5072920;28;20040;-66
2023/09/29 09:05:56;;;;;;;8.60;4.03;;;22.10;99.90;;;;;;5072525;28;20044;-66
2023/09/29 09:08:23;;;;;;;11.27;4.35;;;21.90;99.90;;;;;;5072025;28;20028;-68
2023/09/29 09:10:58;;;;;;;11.38;4.25;;;21.70;99.90;;;;;;5073168;28;20031;-66
2023/09/29 09:13:26;;;;;;;14.43;4.70;;;21.60;99.90;;;;;;5072736;28;20040;-66
2023/09/29 09:16:00;;;;;;;10.93;4.60;;;21.50;99.90;;;;;;5060073;28;20388;-65
2023/09/29 09:18:27;;;;;;;8.68;3.90;;;21.40;99.90;;;;;;5055040;28;20120;-65
2023/09/29 09:20:53;;;;;;;12.15;4.15;;;21.40;99.90;;;;;;5073078;28;20020;-67
2023/09/29 09:23:19;;;;;;;11.18;3.92;;;21.30;99.90;;;;;;5072869;28;20392;-67
2023/09/29 09:25:45;;;;;;;12.30;4.38;;;21.20;99.90;;;;;;5072753;28;20020;-66
2023/09/29 09:28:18;;;;;;;8.00;3.47;;;21.10;99.90;;;;;;5072925;28;20119;-65
2023/09/29 09:30:46;;;;;;;8.70;3.22;;;21.00;99.90;;;;;;5071419;28;20032;-66
2023/09/29 09:33:23;;;;;;;8.43;3.67;;;21.00;99.90;;;;;;5062304;28;20047;-66
2023/09/29 09:35:49;;;;;;;8.60;3.67;;;21.00;99.90;;;;;;5072426;28;20104;-65
2023/09/29 09:38:15;;;;;;;6.30;3.33;;;20.90;99.90;;;;;;5072395;28;20043;-66
2023/09/29 09:40:45;;;;;;;6.63;3.15;;;20.80;99.90;;;;;;5068602;28;20384;-66
2023/09/29 09:43:11;;;;;;;10.77;3.58;;;20.60;99.90;;;;;;5072598;28;20055;-66
2023/09/29 09:45:43;;;;;;;6.45;3.28;;;20.40;99.90;;;;;;5072420;28;20158;-65
2023/09/29 09:48:16;;;;;;;8.00;3.85;;;20.30;99.90;;;;;;5071888;28;20036;-66
2023/09/29 09:50:45;;;;;;;8.50;4.10;;;20.10;99.90;;;;;;5070572;28;20572;-67
2023/09/29 09:53:13;;;;;;;8.65;4.50;;;19.90;99.90;;;;;;5075503;28;20150;-67
2023/09/29 09:55:44;;;;;;;10.32;5.05;;;19.80;99.90;;;;;;5072100;28;20028;-67
2023/09/29 09:58:15;;;;;;;8.63;4.63;;;19.80;99.90;;;;;;5072322;28;20063;-67
2023/09/29 10:00:42;;;;;;;8.68;4.40;;;19.80;99.90;;;;;;5072574;28;20558;-66
2023/09/29 10:03:12;;;;;;;9.20;4.30;;;19.80;99.90;;;;;;5072261;28;20028;-66
2023/09/29 10:05:46;;;;;;;14.30;5.22;;;19.70;99.90;;;;;;5071865;28;20036;-66
2023/09/29 10:08:24;;;;;;;13.57;4.70;;;19.70;99.90;;;;;;5070588;28;20032;-66
2023/09/29 10:10:50;;;;;;;15.05;4.40;;;19.70;99.90;;;;;;5064659;28;20031;-66
2023/09/29 10:13:16;;;;;;;14.52;3.25;;;19.70;99.90;;;;;;5072333;28;20040;-66
2023/09/29 10:15:42;;;;;;;12.75;2.95;;;19.80;99.90;;;;;;5072405;28;20033;-66
2023/09/29 10:18:18;;;;;;;8.80;2.13;;;19.90;99.90;;;;;;5071469;28;20504;-66
2023/09/29 10:20:46;;;;;;;11.55;2.63;;;19.90;99.90;;;;;;5071174;28;20025;-66
2023/09/29 10:23:13;;;;;;;15.00;2.33;;;19.90;99.90;;;;;;5070265;28;20036;-66
2023/09/29 10:25:54;;;;;;;11.20;2.40;;;20.00;99.90;;;;;;5058390;28;20037;-66
2023/09/29 10:28:36;;;;;;;12.45;2.58;;;20.20;99.90;;;;;;5065995;28;20028;-67
2023/09/29 10:31:15;;;;;;;10.87;2.50;;;20.30;99.90;;;;;;5072255;28;20047;-66
2023/09/29 10:33:54;;;;;;;7.80;1.95;;;20.30;99.90;;;;;;5072297;28;20285;-66
2023/09/29 10:36:24;;;;;;;9.55;2.22;;;20.30;99.90;;;;;;5071850;28;20024;-67
2023/09/29 10:38:51;;;;;;;8.48;2.33;;;20.30;99.90;;;;;;5072208;28;20033;-66
2023/09/29 10:41:23;;;;;;;8.45;2.10;;;20.40;99.90;;;;;;5072442;28;20361;-66
2023/09/29 10:43:50;;;;;;;8.23;2.15;;;20.40;99.90;;;;;;5072211;28;20392;-66
2023/09/29 10:46:17;;;;;;;10.63;2.50;;;20.30;99.90;;;;;;5075266;28;20035;-69
2023/09/29 10:48:51;;;;;;;7.47;2.00;;;20.20;99.90;;;;;;5092606;28;20087;-67
2023/09/29 10:51:24;;;;;;;9.90;2.50;;;20.10;99.90;;;;;;5092347;28;20050;-66
2023/09/29 10:53:50;;;;;;;9.15;2.40;;;19.90;99.90;;;;;;5086313;28;20039;-66
2023/09/29 10:56:24;;;;;;;9.25;2.97;;;19.80;99.90;;;;;;5072105;28;20035;-66
2023/09/29 10:58:52;;;;;;;16.25;3.63;;;19.70;99.90;;;;;;5072071;28;20032;-66
2023/09/29 11:01:32;;;;;;;14.07;2.97;;;19.60;99.90;;;;;;5071478;28;20033;-66
2023/09/29 11:03:58;;;;;;;10.05;2.70;;;19.50;99.90;;;;;;5072106;28;20028;-66
2023/09/29 11:06:24;;;;;;;10.63;2.55;;;19.70;99.90;;;;;;5072210;28;20135;-67
2023/09/29 11:08:58;;;;;;;10.05;2.85;;;20.00;99.90;;;;;;5092435;28;20168;-66
2023/09/29 11:11:33;;;;;;;8.85;2.35;;;20.20;99.90;;;;;;5090154;28;20697;-66
2023/09/29 11:13:59;;;;;;;10.38;2.25;;;20.40;99.90;;;;;;5091962;28;20145;-66
2023/09/29 11:16:27;;;;;;;9.20;2.65;;;20.50;99.90;;;;;;5076009;28;20495;-66
2023/09/29 11:18:56;;;;;;;11.40;2.85;;;20.50;99.90;;;;;;5053289;28;20036;-66
2023/09/29 11:21:42;;;;;;;11.10;2.47;;;20.60;99.90;;;;;;5058388;28;20476;-66
2023/09/29 11:24:13;;;;;;;7.53;1.90;;;20.60;99.90;;;;;;5052026;28;20044;-66
2023/09/29 11:26:46;;;;;;;12.15;2.92;;;20.60;99.90;;;;;;5060197;28;20024;-65
2023/09/29 11:29:27;;;;;;;10.18;3.28;;;20.50;99.90;;;;;;5071942;28;20047;-66
2023/09/29 11:31:54;;;;;;;9.68;2.65;;;20.40;99.90;;;;;;5074161;28;20380;-67
2023/09/29 11:34:21;;;;;;;9.77;2.45;;;20.50;99.90;;;;;;5066589;28;20047;-66
2023/09/29 11:36:51;;;;;;;8.50;2.47;;;20.70;99.90;;;;;;5055022;28;20380;-67
2023/09/29 11:39:20;;;;;;;11.38;2.67;;;20.90;99.90;;;;;;5055241;28;20021;-66
2023/09/29 11:41:47;;;;;;;14.20;2.67;;;21.00;99.90;;;;;;5054978;28;20404;-67
2023/09/29 11:44:14;;;;;;;10.15;2.60;;;21.20;99.90;;;;;;5054906;28;20469;-65
2023/09/29 11:46:39;;;;;;;12.20;2.75;;;21.40;99.90;;;;;;5059920;28;20094;-65
2023/09/29 11:49:05;;;;;;;12.93;3.67;;;21.70;99.90;;;;;;5067293;28;20460;-65
2023/09/29 11:51:31;;;;;;;12.25;3.47;;;22.30;99.90;;;;;;5054287;28;20512;-66
2023/09/29 11:53:58;;;;;;;12.40;3.10;;;22.80;99.90;;;;;;5054425;28;20025;-66
2023/09/29 11:56:24;;;;;;;16.95;3.63;;;23.10;99.90;;;;;;5069544;28;20384;-65
2023/09/29 11:58:49;;;;;;;11.25;4.43;;;23.50;99.90;;;;;;5071890;28;20037;-66
2023/09/29 12:01:17;;;;;;;11.15;2.60;;;23.60;99.90;;;;;;5063682;28;20116;-67
2023/09/29 12:03:43;;;;;;;9.88;2.60;;;23.80;99.90;;;;;;5071039;28;20028;-66
2023/09/29 12:06:09;;;;;;;16.30;3.92;;;23.60;99.90;;;;;;5075239;28;20028;-66
2023/09/29 12:08:38;;;;;;;12.80;4.70;;;23.40;99.90;;;;;;5072657;28;20074;-66
2023/09/29 12:11:05;;;;;;;14.52;4.55;;;23.20;99.90;;;;;;5060024;28;20388;-66
2023/09/29 12:13:33;;;;;;;12.52;4.38;;;23.20;99.90;;;;;;5069018;28;20083;-66
2023/09/29 12:15:59;;;;;;;16.77;3.83;;;23.10;99.90;;;;;;5072607;28;20469;-67
2023/09/29 12:18:28;;;;;;;11.45;3.58;;;23.00;99.90;;;;;;5074241;28;20044;-66
2023/09/29 12:20:56;;;;;;;15.60;4.10;;;22.80;99.90;;;;;;5074097;28;20106;-66
2023/09/29 12:23:21;;;;;;;17.00;3.80;;;22.80;99.90;;;;;;5073916;28;20039;-66
2023/09/29 12:25:47;;;;;;;14.07;3.58;;;23.10;99.90;;;;;;5072853;28;20636;-66
2023/09/29 12:28:15;;;;;;;17.35;6.72;;;23.00;99.90;;;;;;5066887;28;20044;-66
2023/09/29 12:30:43;;;;;;;18.33;5.25;;;22.90;99.90;;;;;;5073957;28;20021;-66
2023/09/29 12:33:10;;;;;;;17.42;4.53;;;22.60;99.90;;;;;;5073835;28;20035;-66
2023/09/29 12:35:36;;;;;;;17.58;3.90;;;22.40;99.90;;;;;;5065887;28;20944;-66
2023/09/29 12:38:04;;;;;;;17.17;4.40;;;22.30;99.90;;;;;;5073539;28;20115;-67
2023/09/29 12:40:30;;;;;;;12.95;3.85;;;22.20;99.90;;;;;;5072401;28;20471;-66